createdAt,value
2023-01-22T00:00:06.019Z,0.55
2023-01-22T00:02:36.172Z,0.47
2023-01-22T00:05:04.012Z,0.47
2023-01-22T00:07:30.737Z,0.47
2023-01-22T00:09:57.372Z,0.43
2023-01-22T00:12:24.146Z,0.36
2023-01-22T00:14:50.994Z,0.34
2023-01-22T00:17:17.720Z,0.47
2023-01-22T00:19:44.495Z,0.39
2023-01-22T00:22:12.222Z,0.32
2023-01-22T00:24:41.754Z,0.45
2023-01-22T00:27:08.348Z,0.22
2023-01-22T00:29:35.147Z,0.40
2023-01-22T00:32:02.360Z,0.30
2023-01-22T00:34:29.135Z,0.43
2023-01-22T00:36:56.202Z,0.41
2023-01-22T00:40:35.564Z,0.39
2023-01-22T00:43:07.787Z,0.36
2023-01-22T00:45:34.443Z,0.35
2023-01-22T00:48:01.306Z,0.35
2023-01-22T00:57:40.792Z,0.42
2023-01-22T01:00:08.435Z,0.38
2023-01-22T01:02:55.454Z,0.39
2023-01-22T01:05:22.983Z,0.34
2023-01-22T01:07:49.696Z,0.25
2023-01-22T01:10:16.886Z,0.32
2023-01-22T01:12:46.942Z,0.38
2023-01-22T01:15:16.410Z,0.31
2023-01-22T01:17:43.187Z,0.34
2023-01-22T01:20:11.503Z,0.39
2023-01-22T01:22:57.142Z,0.36
2023-01-22T01:25:26.865Z,0.43
2023-01-22T01:27:55.175Z,0.39
2023-01-22T01:30:21.903Z,0.37
2023-01-22T01:32:49.462Z,0.41
2023-01-22T01:35:16.224Z,0.42
2023-01-22T01:37:42.838Z,0.40
2023-01-22T01:40:10.036Z,0.27
2023-01-22T01:42:39.650Z,0.38
2023-01-22T01:45:26.683Z,0.46
2023-01-22T01:47:57.335Z,0.28
2023-01-22T01:50:28.660Z,0.37
2023-01-22T01:52:56.841Z,0.36
2023-01-22T01:55:30.494Z,0.39
2023-01-22T01:58:01.020Z,0.42
2023-01-22T02:00:31.428Z,0.34
2023-01-22T02:02:58.953Z,0.31
2023-01-22T02:05:26.193Z,0.44
2023-01-22T02:07:52.847Z,0.47
2023-01-22T02:10:19.913Z,0.33
2023-01-22T02:12:46.691Z,0.42
2023-01-22T02:15:13.866Z,0.31
2023-01-22T02:17:40.676Z,0.38
2023-01-22T02:20:07.628Z,0.36
2023-01-22T02:22:36.686Z,0.35
2023-01-22T02:25:03.479Z,0.39
2023-01-22T02:27:30.118Z,0.35
2023-01-22T02:29:56.881Z,0.38
2023-01-22T02:32:23.530Z,0.47
2023-01-22T02:34:50.179Z,0.51
2023-01-22T02:37:16.997Z,0.32
2023-01-22T02:39:43.668Z,0.43
2023-01-22T02:42:10.492Z,0.39
2023-01-22T02:44:37.147Z,0.40
2023-01-22T02:47:04.114Z,0.40
2023-01-22T02:49:31.783Z,0.48
2023-01-22T02:51:58.620Z,0.32
2023-01-22T02:54:25.477Z,0.49
2023-01-22T02:56:52.064Z,0.36
2023-01-22T02:59:18.737Z,0.39
2023-01-22T03:01:45.452Z,0.47
2023-01-22T03:04:12.133Z,0.44
2023-01-22T03:06:43.207Z,0.49
2023-01-22T03:09:11.036Z,0.44
2023-01-22T03:11:38.822Z,0.36
2023-01-22T03:14:25.302Z,0.41
2023-01-22T03:17:11.115Z,0.30
2023-01-22T03:19:56.459Z,0.28
2023-01-22T03:22:23.857Z,0.43
2023-01-22T03:24:52.071Z,0.43
2023-01-22T03:27:20.730Z,0.28
2023-01-22T03:29:47.352Z,0.23
2023-01-22T03:32:14.290Z,0.19
2023-01-22T03:34:41.031Z,0.33
2023-01-22T03:37:08.848Z,0.38
2023-01-22T03:39:35.525Z,0.44
2023-01-22T03:42:02.149Z,0.40
2023-01-22T03:44:28.841Z,0.32
2023-01-22T03:46:55.473Z,0.32
2023-01-22T03:49:22.180Z,0.37
2023-01-22T03:51:48.841Z,0.30
2023-01-22T03:54:16.608Z,0.26
2023-01-22T03:56:43.459Z,0.39
2023-01-22T03:59:10.760Z,0.39
2023-01-22T04:01:37.428Z,0.40
2023-01-22T04:04:04.321Z,0.39
2023-01-22T04:06:31.004Z,0.35
2023-01-22T04:08:57.702Z,0.24
2023-01-22T04:11:24.678Z,0.20
2023-01-22T04:13:51.328Z,0.17
2023-01-22T04:16:18.164Z,0.22
2023-01-22T04:18:44.876Z,0.24
2023-01-22T04:21:11.576Z,0.36
2023-01-22T04:23:38.201Z,0.37
2023-01-22T04:26:04.981Z,0.38
2023-01-22T04:28:31.635Z,0.30
2023-01-22T04:30:58.369Z,0.36
2023-01-22T04:33:26.182Z,0.41
2023-01-22T04:35:54.626Z,0.23
2023-01-22T04:38:21.360Z,0.14
2023-01-22T04:40:48.245Z,0.23
2023-01-22T04:43:14.913Z,0.44
2023-01-22T04:45:41.637Z,0.20
2023-01-22T04:48:09.261Z,0.24
2023-01-22T04:50:36.003Z,0.34
2023-01-22T04:53:03.091Z,0.30
2023-01-22T04:55:30.225Z,0.40
2023-01-22T04:57:57.893Z,0.26
2023-01-22T05:00:25.621Z,0.31
2023-01-22T05:02:59.426Z,0.36
2023-01-22T05:05:27.625Z,0.37
2023-01-22T05:07:55.074Z,0.26
2023-01-22T05:10:22.408Z,0.31
2023-01-22T05:12:49.318Z,0.24
2023-01-22T05:15:23.990Z,0.27
2023-01-22T05:17:50.915Z,0.22
2023-01-22T05:20:17.884Z,0.42
2023-01-22T05:22:44.699Z,0.35
2023-01-22T05:25:11.403Z,0.39
2023-01-22T05:27:38.013Z,0.21
2023-01-22T05:30:05.942Z,0.41
2023-01-22T05:32:32.823Z,0.43
2023-01-22T05:34:59.440Z,0.26
2023-01-22T05:37:26.027Z,0.40
2023-01-22T05:39:52.704Z,0.12
2023-01-22T05:42:19.433Z,0.35
2023-01-22T05:44:46.021Z,0.27
2023-01-22T05:47:13.635Z,0.41
2023-01-22T05:49:40.505Z,0.27
2023-01-22T05:52:10.690Z,0.28
2023-01-22T05:54:38.857Z,0.32
2023-01-22T05:57:05.807Z,0.32
2023-01-22T05:59:32.417Z,0.25
2023-01-22T06:01:59.083Z,0.29
2023-01-22T06:04:25.821Z,0.21
2023-01-22T06:06:52.544Z,0.18
2023-01-22T06:09:19.197Z,0.22
2023-01-22T06:11:45.924Z,0.23
2023-01-22T06:14:12.496Z,0.26
2023-01-22T06:16:39.166Z,0.19
2023-01-22T06:19:06.114Z,0.32
2023-01-22T06:21:32.713Z,0.35
2023-01-22T06:23:59.339Z,0.17
2023-01-22T06:26:25.973Z,0.33
2023-01-22T06:28:53.024Z,0.30
2023-01-22T06:31:19.790Z,0.31
2023-01-22T06:33:46.504Z,0.18
2023-01-22T06:36:13.251Z,0.35
2023-01-22T06:38:42.652Z,0.27
2023-01-22T06:41:09.802Z,0.39
2023-01-22T06:43:37.636Z,0.33
2023-01-22T06:46:05.032Z,0.27
2023-01-22T06:48:31.918Z,0.24
2023-01-22T06:50:59.988Z,0.35
2023-01-22T06:53:27.342Z,0.24
2023-01-22T06:55:54.500Z,0.46
2023-01-22T06:58:21.267Z,0.38
2023-01-22T07:00:48.085Z,0.35
2023-01-22T07:03:15.905Z,0.22
2023-01-22T07:05:42.697Z,0.25
2023-01-22T07:08:13.634Z,0.20
2023-01-22T07:10:40.333Z,0.46
2023-01-22T07:13:09.063Z,0.45
2023-01-22T07:15:35.959Z,0.32
2023-01-22T07:18:02.742Z,0.40
2023-01-22T07:20:29.521Z,0.55
2023-01-22T07:22:59.195Z,0.34
2023-01-22T07:25:27.399Z,0.47
2023-01-22T07:28:01.614Z,0.35
2023-01-22T07:30:28.674Z,0.26
2023-01-22T07:32:59.626Z,0.42
2023-01-22T07:35:26.953Z,0.50
2023-01-22T07:37:55.158Z,0.41
2023-01-22T07:40:24.256Z,0.52
2023-01-22T07:42:51.972Z,0.52
2023-01-22T07:45:19.437Z,0.36
2023-01-22T07:47:58.849Z,0.50
2023-01-22T07:50:30.805Z,0.37
2023-01-22T07:52:57.890Z,0.50
2023-01-22T07:55:24.698Z,0.40
2023-01-22T07:58:17.672Z,0.36
2023-01-22T08:00:44.557Z,0.41
2023-01-22T08:03:11.357Z,0.55
2023-01-22T08:05:42.429Z,0.48
2023-01-22T08:08:14.578Z,0.52
2023-01-22T08:10:41.863Z,0.50
2023-01-22T08:13:08.876Z,0.52
2023-01-22T08:15:35.737Z,0.49
2023-01-22T08:18:02.599Z,0.31
2023-01-22T08:20:29.310Z,0.29
2023-01-22T08:23:00.243Z,0.46
2023-01-22T08:25:28.055Z,0.40
2023-01-22T08:27:55.061Z,0.45
2023-01-22T08:30:26.082Z,0.37
2023-01-22T08:32:53.599Z,0.36
2023-01-22T08:35:21.738Z,0.35
2023-01-22T08:37:48.601Z,0.35
2023-01-22T08:40:15.826Z,0.45
2023-01-22T08:42:42.800Z,0.43
2023-01-22T08:45:10.044Z,0.50
2023-01-22T08:47:36.720Z,0.53
2023-01-22T08:50:04.072Z,0.46
2023-01-22T08:52:30.961Z,0.59
2023-01-22T08:54:57.775Z,0.50
2023-01-22T08:57:24.468Z,0.52
2023-01-22T09:00:00.744Z,0.49
2023-01-22T09:02:28.281Z,0.54
2023-01-22T09:04:55.110Z,0.53
2023-01-22T09:07:21.824Z,0.39
2023-01-22T09:09:48.535Z,0.46
2023-01-22T09:12:15.143Z,0.32
2023-01-22T09:14:41.862Z,0.34
2023-01-22T09:17:08.855Z,0.56
2023-01-22T09:19:35.574Z,0.54
2023-01-22T09:22:06.616Z,0.41
2023-01-22T09:24:33.800Z,0.61
2023-01-22T09:27:00.521Z,0.65
2023-01-22T09:29:27.302Z,0.60
2023-01-22T09:31:54.066Z,0.68
2023-01-22T09:34:20.749Z,0.63
2023-01-22T09:36:47.451Z,0.74
2023-01-22T09:39:14.263Z,0.71
2023-01-22T09:41:43.475Z,0.63
2023-01-22T09:44:34.487Z,0.59
2023-01-22T09:47:12.896Z,0.68
2023-01-22T09:50:04.610Z,0.69
2023-01-22T09:52:34.096Z,0.64
2023-01-22T09:55:01.034Z,0.61
2023-01-22T09:57:32.218Z,0.64
2023-01-22T09:59:59.847Z,0.64
2023-01-22T10:02:31.306Z,0.78
2023-01-22T10:05:01.846Z,0.80
2023-01-22T10:07:36.855Z,0.81
2023-01-22T10:10:17.496Z,0.70
2023-01-22T10:12:44.783Z,0.79
2023-01-22T10:15:15.490Z,0.73
2023-01-22T10:17:42.502Z,0.66
2023-01-22T10:20:11.139Z,0.79
2023-01-22T10:22:37.948Z,0.90
2023-01-22T10:25:05.163Z,0.69
2023-01-22T10:27:35.487Z,0.73
2023-01-22T10:30:09.474Z,0.69
2023-01-22T10:32:36.186Z,0.77
2023-01-22T10:35:05.771Z,0.77
2023-01-22T10:37:44.532Z,0.88
2023-01-22T10:40:34.379Z,0.82
2023-01-22T10:43:15.654Z,0.94
2023-01-22T10:45:56.937Z,1.06
2023-01-22T10:48:24.479Z,1.17
2023-01-22T10:51:14.420Z,1.16
2023-01-22T10:53:47.636Z,1.08
2023-01-22T10:56:25.444Z,1.29
2023-01-22T10:58:52.324Z,1.21
2023-01-22T11:01:30.091Z,1.36
2023-01-22T11:03:56.918Z,1.22
2023-01-22T11:06:32.809Z,1.27
2023-01-22T11:09:16.727Z,1.37
2023-01-22T11:11:49.859Z,1.21
2023-01-22T11:14:29.968Z,1.28
2023-01-22T11:16:59.283Z,1.25
2023-01-22T11:19:36.877Z,1.27
2023-01-22T11:22:11.898Z,1.35
2023-01-22T11:24:47.164Z,1.18
2023-01-22T11:27:20.445Z,1.32
2023-01-22T11:30:21.132Z,1.33
2023-01-22T11:33:04.106Z,1.32
2023-01-22T11:35:41.764Z,1.33
2023-01-22T11:38:44.056Z,1.38
2023-01-22T11:41:47.587Z,1.28
2023-01-22T11:44:42.576Z,1.23
2023-01-22T11:47:25.018Z,1.18
2023-01-22T11:50:00.902Z,1.25
2023-01-22T11:52:36.518Z,1.35
2023-01-22T11:55:24.576Z,1.29
2023-01-22T11:58:01.740Z,1.21
2023-01-22T12:00:42.524Z,1.19
2023-01-22T12:03:12.121Z,1.22
2023-01-22T12:05:59.590Z,1.36
2023-01-22T12:08:35.306Z,1.28
2023-01-22T12:11:23.880Z,1.23
2023-01-22T12:14:11.899Z,1.24
2023-01-22T12:17:17.061Z,1.32
2023-01-22T12:20:09.951Z,1.48
2023-01-22T12:22:38.410Z,1.40
2023-01-22T12:25:21.269Z,1.48
2023-01-22T12:27:52.449Z,1.58
2023-01-22T12:30:37.016Z,1.31
2023-01-22T12:33:05.439Z,1.36
2023-01-22T12:35:32.722Z,1.38
2023-01-22T12:38:12.901Z,1.31
2023-01-22T12:40:52.591Z,1.44
2023-01-22T12:43:26.927Z,1.26
2023-01-22T12:45:54.115Z,1.28
2023-01-22T12:48:26.703Z,1.19
2023-01-22T12:50:56.222Z,1.17
2023-01-22T12:53:29.983Z,1.26
2023-01-22T12:56:09.706Z,1.17
2023-01-22T12:58:41.005Z,1.10
2023-01-22T13:01:23.318Z,1.20
2023-01-22T13:04:07.131Z,1.12
2023-01-22T13:06:41.573Z,1.31
2023-01-22T13:09:26.267Z,1.35
2023-01-22T13:11:52.956Z,1.36
2023-01-22T13:14:21.681Z,1.28
2023-01-22T13:16:59.550Z,1.21
2023-01-22T13:19:29.094Z,1.31
2023-01-22T13:21:59.790Z,1.27
2023-01-22T13:24:26.379Z,1.20
2023-01-22T13:27:01.138Z,1.20
2023-01-22T13:29:34.021Z,1.13
2023-01-22T13:32:06.355Z,1.08
2023-01-22T13:34:33.005Z,1.20
2023-01-22T13:36:59.843Z,1.24
2023-01-22T13:39:32.391Z,1.24
2023-01-22T13:42:01.493Z,1.28
2023-01-22T13:44:34.381Z,1.16
2023-01-22T13:47:01.660Z,1.18
2023-01-22T13:49:42.801Z,1.26
2023-01-22T13:52:14.567Z,1.08
2023-01-22T13:54:43.711Z,1.23
2023-01-22T13:57:16.102Z,1.18
2023-01-22T13:59:53.135Z,1.25
2023-01-22T14:02:21.965Z,1.21
2023-01-22T14:04:49.174Z,1.16
2023-01-22T14:07:27.542Z,0.95
2023-01-22T14:09:55.261Z,1.06
2023-01-22T14:12:26.907Z,1.09
2023-01-22T14:14:54.206Z,1.16
2023-01-22T14:17:24.739Z,1.16
2023-01-22T14:19:51.778Z,1.05
2023-01-22T14:22:18.688Z,0.96
2023-01-22T14:24:45.375Z,1.06
2023-01-22T14:27:11.993Z,1.17
2023-01-22T14:29:38.777Z,0.90
2023-01-22T14:32:05.462Z,1.06
2023-01-22T14:34:32.099Z,1.13
2023-01-22T14:36:58.765Z,0.96
2023-01-22T14:39:25.562Z,1.07
2023-01-22T14:41:52.221Z,0.93
2023-01-22T14:44:19.055Z,1.09
2023-01-22T14:46:45.883Z,0.92
2023-01-22T14:49:12.691Z,0.87
2023-01-22T14:51:39.426Z,0.94
2023-01-22T14:54:06.077Z,0.93
2023-01-22T14:56:32.709Z,0.92
2023-01-22T14:58:59.397Z,0.97
2023-01-22T15:01:28.232Z,0.95
2023-01-22T15:03:54.850Z,0.99
2023-01-22T15:06:21.482Z,1.19
2023-01-22T15:08:48.120Z,1.09
2023-01-22T15:11:14.790Z,1.05
2023-01-22T15:13:44.287Z,0.96
2023-01-22T15:16:11.407Z,0.96
2023-01-22T15:18:38.636Z,1.17
2023-01-22T15:21:06.007Z,1.19
2023-01-22T15:23:33.947Z,0.98
2023-01-22T15:26:03.543Z,0.95
2023-01-22T15:28:30.759Z,1.08
2023-01-22T15:31:01.464Z,1.16
2023-01-22T15:33:28.225Z,1.11
2023-01-22T15:35:54.955Z,0.90
2023-01-22T15:38:21.753Z,1.10
2023-01-22T15:40:51.666Z,0.90
2023-01-22T15:43:18.277Z,0.89
2023-01-22T15:45:44.906Z,0.84
2023-01-22T15:48:13.923Z,0.99
2023-01-22T15:50:41.630Z,1.10
2023-01-22T15:53:08.334Z,1.00
2023-01-22T15:55:35.555Z,1.06
2023-01-22T15:58:02.319Z,1.00
2023-01-22T16:00:29.348Z,1.05
2023-01-22T16:02:56.078Z,1.02
2023-01-22T16:05:25.928Z,0.91
2023-01-22T16:07:52.765Z,0.75
2023-01-22T16:10:20.172Z,0.93
2023-01-22T16:12:46.970Z,0.89
2023-01-22T16:15:13.552Z,0.92
2023-01-22T16:17:40.151Z,0.90
2023-01-22T16:20:07.789Z,0.80
2023-01-22T16:22:34.457Z,0.94
2023-01-22T16:25:01.123Z,0.94
2023-01-22T16:27:27.882Z,0.97
2023-01-22T16:29:54.845Z,0.91
2023-01-22T16:32:21.535Z,0.79
2023-01-22T16:34:48.202Z,0.82
2023-01-22T16:37:14.905Z,0.61
2023-01-22T16:39:41.598Z,0.70
2023-01-22T16:42:08.186Z,0.73
2023-01-22T16:44:35.065Z,0.96
2023-01-22T16:47:01.767Z,0.83
2023-01-22T16:49:30.465Z,0.90
2023-01-22T16:52:00.272Z,0.98
2023-01-22T16:54:34.899Z,0.77
2023-01-22T16:57:06.131Z,0.85
2023-01-22T16:59:36.881Z,0.77
2023-01-22T17:02:05.241Z,0.89
2023-01-22T17:04:31.893Z,0.82
2023-01-22T17:06:59.549Z,0.75
2023-01-22T17:09:28.704Z,0.92
2023-01-22T17:11:58.253Z,0.86
2023-01-22T17:14:27.081Z,0.89
2023-01-22T17:16:53.855Z,0.75
2023-01-22T17:19:20.499Z,0.79
2023-01-22T17:21:49.712Z,0.85
2023-01-22T17:24:16.343Z,0.80
2023-01-22T17:26:42.962Z,0.95
2023-01-22T17:29:10.335Z,1.06
2023-01-22T17:31:37.991Z,0.70
2023-01-22T17:34:08.752Z,0.75
2023-01-22T17:36:35.690Z,0.73
2023-01-22T17:39:04.678Z,0.72
2023-01-22T17:41:31.575Z,0.78
2023-01-22T17:43:58.869Z,0.69
2023-01-22T17:46:31.961Z,0.86
2023-01-22T17:49:01.098Z,0.85
2023-01-22T17:51:28.822Z,0.78
2023-01-22T17:53:56.908Z,0.89
2023-01-22T17:56:26.397Z,0.93
2023-01-22T17:58:57.473Z,0.90
2023-01-22T18:01:27.923Z,0.89
2023-01-22T18:03:57.533Z,0.92
2023-01-22T18:06:24.829Z,0.78
2023-01-22T18:08:51.563Z,0.86
2023-01-22T18:11:20.466Z,0.71
2023-01-22T18:13:47.724Z,0.68
2023-01-22T18:16:16.494Z,0.79
2023-01-22T18:18:43.892Z,0.72
2023-01-22T18:21:16.625Z,0.80
2023-01-22T18:23:44.207Z,0.79
2023-01-22T18:26:11.015Z,0.64
2023-01-22T18:28:41.596Z,0.87
2023-01-22T18:31:11.598Z,0.71
2023-01-22T18:33:39.361Z,0.81
2023-01-22T18:36:12.275Z,0.71
2023-01-22T18:38:39.861Z,0.75
2023-01-22T18:41:10.389Z,0.79
2023-01-22T18:43:38.286Z,0.62
2023-01-22T18:46:12.387Z,0.56
2023-01-22T18:48:40.229Z,0.62
2023-01-22T18:51:09.184Z,0.55
2023-01-22T18:53:36.408Z,0.71
2023-01-22T18:56:05.100Z,0.59
2023-01-22T18:58:33.883Z,0.61
2023-01-22T19:01:12.395Z,0.67
2023-01-22T19:03:41.215Z,0.67
2023-01-22T19:06:13.948Z,0.64
2023-01-22T19:08:46.150Z,0.59
2023-01-22T19:11:14.054Z,0.54
2023-01-22T19:13:42.013Z,0.62
2023-01-22T19:16:10.990Z,0.62
2023-01-22T19:18:42.301Z,0.57
2023-01-22T19:21:12.472Z,0.66
2023-01-22T19:23:39.156Z,0.81
2023-01-22T19:26:15.666Z,0.69
2023-01-22T19:28:42.755Z,0.70
2023-01-22T19:31:17.963Z,0.68
2023-01-22T19:33:45.457Z,0.57
2023-01-22T19:36:12.430Z,0.53
2023-01-22T19:38:40.500Z,0.48
2023-01-22T19:41:08.785Z,0.55
2023-01-22T19:43:35.909Z,0.64
2023-01-22T19:46:09.482Z,0.54
2023-01-22T19:48:36.714Z,0.60
2023-01-22T19:51:08.051Z,0.66
2023-01-22T19:53:35.101Z,0.69
2023-01-22T19:56:02.187Z,0.67
2023-01-22T19:58:28.909Z,0.76
2023-01-22T20:00:58.124Z,0.69
2023-01-22T20:03:26.408Z,0.66
2023-01-22T20:05:53.178Z,0.48
2023-01-22T20:08:22.104Z,0.42
2023-01-22T20:10:58.205Z,0.47
2023-01-22T20:13:24.818Z,0.42
2023-01-22T20:15:52.829Z,0.52
2023-01-22T20:18:19.984Z,0.51
2023-01-22T20:20:57.521Z,0.40
2023-01-22T20:23:26.173Z,0.32
2023-01-22T20:25:53.028Z,0.45
2023-01-22T20:28:19.956Z,0.47
2023-01-22T20:30:57.310Z,0.56
2023-01-22T20:33:28.143Z,0.53
2023-01-22T20:35:56.436Z,0.54
2023-01-22T20:38:23.397Z,0.56
2023-01-22T20:40:50.389Z,0.56
2023-01-22T20:43:17.842Z,0.59
2023-01-22T20:45:44.679Z,0.48
2023-01-22T20:48:11.348Z,0.48
2023-01-22T20:50:42.034Z,0.35
2023-01-22T20:53:08.722Z,0.40
2023-01-22T20:55:35.530Z,0.36
2023-01-22T20:58:07.367Z,0.57
2023-01-22T21:00:37.108Z,0.53
2023-01-22T21:03:03.994Z,0.69
2023-01-22T21:05:30.864Z,0.60
2023-01-22T21:07:57.515Z,0.63
2023-01-22T21:10:24.326Z,0.49
2023-01-22T21:12:52.925Z,0.51
2023-01-22T21:15:19.575Z,0.40
2023-01-22T21:17:46.640Z,0.50
2023-01-22T21:20:13.425Z,0.43
2023-01-22T21:22:41.922Z,0.34
2023-01-22T21:25:09.033Z,0.47
2023-01-22T21:27:36.756Z,0.65
2023-01-22T21:30:09.130Z,0.59
2023-01-22T21:33:01.150Z,0.47
2023-01-22T21:35:35.136Z,0.52
2023-01-22T21:38:01.936Z,0.60
2023-01-22T21:40:28.686Z,0.47
2023-01-22T21:43:20.020Z,0.42
2023-01-22T21:46:27.908Z,0.56
2023-01-22T21:48:58.308Z,0.43
2023-01-22T21:51:29.335Z,0.46
2023-01-22T21:53:58.389Z,0.47
2023-01-22T21:56:26.484Z,0.59
2023-01-22T21:58:53.191Z,0.47
2023-01-22T22:01:21.612Z,0.49
2023-01-22T22:03:54.453Z,0.46
2023-01-22T22:06:24.420Z,0.52
2023-01-22T22:08:53.929Z,0.48
2023-01-22T22:11:20.552Z,0.37
2023-01-22T22:13:49.847Z,0.50
2023-01-22T22:16:16.570Z,0.55
2023-01-22T22:18:43.220Z,0.55
2023-01-22T22:21:10.455Z,0.61
2023-01-22T22:23:37.390Z,0.46
2023-01-22T22:26:05.175Z,0.54
2023-01-22T22:28:32.886Z,0.44
2023-01-22T22:31:11.868Z,0.53
2023-01-22T22:33:46.802Z,0.54
2023-01-22T22:36:14.730Z,0.43
2023-01-22T22:38:41.648Z,0.40
2023-01-22T22:41:12.499Z,0.54
2023-01-22T22:43:44.111Z,0.46
2023-01-22T22:46:20.214Z,0.41
2023-01-22T22:48:47.447Z,0.36
2023-01-22T22:51:23.175Z,0.50
2023-01-22T22:53:52.499Z,0.54
2023-01-22T22:56:19.155Z,0.58
2023-01-22T22:58:46.417Z,0.65
2023-01-22T23:01:18.055Z,0.67
2023-01-22T23:03:45.094Z,0.65
2023-01-22T23:06:14.224Z,0.48
2023-01-22T23:08:42.791Z,0.60
2023-01-22T23:11:11.285Z,0.53
2023-01-22T23:13:38.655Z,0.65
2023-01-22T23:16:11.552Z,0.50
2023-01-22T23:18:38.332Z,0.59
2023-01-22T23:21:06.418Z,0.55
2023-01-22T23:23:33.478Z,0.58
2023-01-22T23:26:00.660Z,0.38
2023-01-22T23:28:29.619Z,0.39
2023-01-22T23:30:56.378Z,0.53
2023-01-22T23:33:23.063Z,0.80
2023-01-22T23:35:51.297Z,0.46
2023-01-22T23:38:18.021Z,0.48
2023-01-22T23:40:44.650Z,0.41
2023-01-22T23:43:11.397Z,0.74
2023-01-22T23:45:38.943Z,0.62
2023-01-22T23:48:05.735Z,0.55
2023-01-22T23:50:32.390Z,0.49
2023-01-22T23:53:02.714Z,0.51
2023-01-22T23:55:31.426Z,0.69
2023-01-22T23:57:58.189Z,0.59
